sensor_id;sensor_type;location;lat;lon;timestamp;pressure;altitude;pressure_sealevel;temperature;humidity
34073;BME280;20346;52.702;16.886;2022-10-28T00:00:08;101778.44;;;10.47;86.23
34073;BME280;20346;52.702;16.886;2022-10-28T00:02:53;101771.98;;;10.47;86.25
34073;BME280;20346;52.702;16.886;2022-10-28T00:05:38;101771.98;;;10.47;86.27
34073;BME280;20346;52.702;16.886;2022-10-28T00:08:23;101768.09;;;10.46;86.28
34073;BME280;20346;52.702;16.886;2022-10-28T00:11:15;101767.66;;;10.48;86.33
34073;BME280;20346;52.702;16.886;2022-10-28T00:14:03;101761.20;;;10.49;86.38
34073;BME280;20346;52.702;16.886;2022-10-28T00:16:48;101762.94;;;10.50;86.41
34073;BME280;20346;52.702;16.886;2022-10-28T00:19:33;101765.53;;;10.53;86.45
34073;BME280;20346;52.702;16.886;2022-10-28T00:22:18;101765.96;;;10.54;86.43
34073;BME280;20346;52.702;16.886;2022-10-28T00:25:03;101766.83;;;10.53;86.36
34073;BME280;20346;52.702;16.886;2022-10-28T00:27:48;101759.48;;;10.51;86.40
34073;BME280;20346;52.702;16.886;2022-10-28T00:30:34;101759.06;;;10.53;86.40
34073;BME280;20346;52.702;16.886;2022-10-28T00:33:19;101751.73;;;10.53;86.43
34073;BME280;20346;52.702;16.886;2022-10-28T00:36:14;101746.99;;;10.52;86.44
34073;BME280;20346;52.702;16.886;2022-10-28T00:39:02;101745.70;;;10.52;86.43
34073;BME280;20346;52.702;16.886;2022-10-28T00:41:56;101753.02;;;10.50;86.44
34073;BME280;20346;52.702;16.886;2022-10-28T00:47:46;101743.11;;;10.51;86.47
34073;BME280;20346;52.702;16.886;2022-10-28T00:50:48;101742.24;;;10.49;86.47
34073;BME280;20346;52.702;16.886;2022-10-28T00:53:35;101737.08;;;10.50;86.48
34073;BME280;20346;52.702;16.886;2022-10-28T00:56:23;101737.50;;;10.50;86.50
34073;BME280;20346;52.702;16.886;2022-10-28T01:02:15;101732.77;;;10.49;86.49
34073;BME280;20346;52.702;16.886;2022-10-28T01:05:00;101728.87;;;10.46;86.55
34073;BME280;20346;52.702;16.886;2022-10-28T01:07:45;101723.27;;;10.45;86.52
34073;BME280;20346;52.702;16.886;2022-10-28T01:11:01;101723.27;;;10.44;86.53
34073;BME280;20346;52.702;16.886;2022-10-28T01:14:06;101729.30;;;10.43;86.53
34073;BME280;20346;52.702;16.886;2022-10-28T01:17:23;101723.69;;;10.40;86.52
34073;BME280;20346;52.702;16.886;2022-10-28T01:20:31;101722.85;;;10.38;86.55
34073;BME280;20346;52.702;16.886;2022-10-28T01:23:34;101720.26;;;10.35;86.49
34073;BME280;20346;52.702;16.886;2022-10-28T01:35:51;101705.59;;;10.26;86.64
34073;BME280;20346;52.702;16.886;2022-10-28T01:44:50;101708.15;;;10.20;86.53
34073;BME280;20346;52.702;16.886;2022-10-28T01:48:00;101705.95;;;10.17;86.63
34073;BME280;20346;52.702;16.886;2022-10-28T01:53:38;101699.48;;;10.14;86.60
34073;BME280;20346;52.702;16.886;2022-10-28T01:56:27;101699.48;;;10.14;86.71
34073;BME280;20346;52.702;16.886;2022-10-28T01:59:20;101695.17;;;10.14;86.70
34073;BME280;20346;52.702;16.886;2022-10-28T02:02:06;101695.17;;;10.14;86.65
34073;BME280;20346;52.702;16.886;2022-10-28T02:04:50;101687.41;;;10.13;86.63
34073;BME280;20346;52.702;16.886;2022-10-28T02:07:37;101678.36;;;10.10;86.62
34073;BME280;20346;52.702;16.886;2022-10-28T02:10:23;101674.48;;;10.10;86.71
34073;BME280;20346;52.702;16.886;2022-10-28T02:13:13;101671.90;;;10.10;86.73
34073;BME280;20346;52.702;16.886;2022-10-28T02:22:44;101664.60;;;10.18;86.85
34073;BME280;20346;52.702;16.886;2022-10-28T02:25:34;101660.33;;;10.20;86.90
34073;BME280;20346;52.702;16.886;2022-10-28T02:28:35;101658.19;;;10.24;87.08
34073;BME280;20346;52.702;16.886;2022-10-28T02:34:31;101649.16;;;10.31;86.93
34073;BME280;20346;52.702;16.886;2022-10-28T02:37:20;101653.91;;;10.34;86.92
34073;BME280;20346;52.702;16.886;2022-10-28T02:40:11;101640.98;;;10.37;86.96
34073;BME280;20346;52.702;16.886;2022-10-28T02:43:00;101631.47;;;10.41;86.96
34073;BME280;20346;52.702;16.886;2022-10-28T02:45:49;101630.61;;;10.43;87.00
34073;BME280;20346;52.702;16.886;2022-10-28T02:48:42;101624.58;;;10.47;87.03
34073;BME280;20346;52.702;16.886;2022-10-28T02:51:31;101632.77;;;10.51;87.04
34073;BME280;20346;52.702;16.886;2022-10-28T02:54:27;101628.03;;;10.55;87.05
34073;BME280;20346;52.702;16.886;2022-10-28T02:57:22;101625.88;;;10.59;87.11
34073;BME280;20346;52.702;16.886;2022-10-28T03:00:14;101622.00;;;10.64;87.14
34073;BME280;20346;52.702;16.886;2022-10-28T03:02:59;101614.24;;;10.67;87.13
34073;BME280;20346;52.702;16.886;2022-10-28T03:05:44;101610.36;;;10.70;87.15
34073;BME280;20346;52.702;16.886;2022-10-28T03:08:29;101609.50;;;10.73;87.14
34073;BME280;20346;52.702;16.886;2022-10-28T03:11:14;101607.77;;;10.75;87.15
34073;BME280;20346;52.702;16.886;2022-10-28T03:13:59;101608.64;;;10.77;87.15
34073;BME280;20346;52.702;16.886;2022-10-28T03:16:44;101606.47;;;10.79;87.17
34073;BME280;20346;52.702;16.886;2022-10-28T03:19:29;101609.92;;;10.81;87.16
34073;BME280;20346;52.702;16.886;2022-10-28T03:22:14;101614.67;;;10.83;87.21
34073;BME280;20346;52.702;16.886;2022-10-28T03:24:59;101617.25;;;10.83;87.20
34073;BME280;20346;52.702;16.886;2022-10-28T03:27:44;101609.06;;;10.84;87.16
34073;BME280;20346;52.702;16.886;2022-10-28T03:30:29;101608.20;;;10.85;87.24
34073;BME280;20346;52.702;16.886;2022-10-28T03:33:14;101604.31;;;10.85;87.24
34073;BME280;20346;52.702;16.886;2022-10-28T03:35:59;101608.62;;;10.86;87.25
34073;BME280;20346;52.702;16.886;2022-10-28T03:38:44;101614.23;;;10.87;87.28
34073;BME280;20346;52.702;16.886;2022-10-28T03:41:29;101614.23;;;10.87;87.29
34073;BME280;20346;52.702;16.886;2022-10-28T03:44:14;101618.98;;;10.87;87.31
34073;BME280;20346;52.702;16.886;2022-10-28T03:46:59;101615.09;;;10.89;87.33
34073;BME280;20346;52.702;16.886;2022-10-28T03:49:44;101623.28;;;10.90;87.35
34073;BME280;20346;52.702;16.886;2022-10-28T03:52:29;101616.81;;;10.90;87.33
34073;BME280;20346;52.702;16.886;2022-10-28T03:55:14;101621.99;;;10.90;87.36
34073;BME280;20346;52.702;16.886;2022-10-28T03:58:02;101616.81;;;10.90;87.37
34073;BME280;20346;52.702;16.886;2022-10-28T04:00:48;101620.27;;;10.90;87.37
34073;BME280;20346;52.702;16.886;2022-10-28T04:03:33;101615.95;;;10.89;87.37
34073;BME280;20346;52.702;16.886;2022-10-28T04:06:18;101617.25;;;10.89;87.39
34073;BME280;20346;52.702;16.886;2022-10-28T04:09:03;101614.23;;;10.88;87.36
34073;BME280;20346;52.702;16.886;2022-10-28T04:11:48;101605.61;;;10.86;87.38
34073;BME280;20346;52.702;16.886;2022-10-28T04:14:33;101598.28;;;10.86;87.42
34073;BME280;20346;52.702;16.886;2022-10-28T04:17:18;101593.53;;;10.84;87.43
34073;BME280;20346;52.702;16.886;2022-10-28T04:20:04;101587.50;;;10.82;87.39
34073;BME280;20346;52.702;16.886;2022-10-28T04:22:50;101575.42;;;10.81;87.41
34073;BME280;20346;52.702;16.886;2022-10-28T04:25:35;101578.02;;;10.79;87.44
34073;BME280;20346;52.702;16.886;2022-10-28T04:28:20;101577.16;;;10.79;87.47
34073;BME280;20346;52.702;16.886;2022-10-28T04:31:09;101573.70;;;10.78;87.47
34073;BME280;20346;52.702;16.886;2022-10-28T04:33:55;101573.70;;;10.78;87.50
34073;BME280;20346;52.702;16.886;2022-10-28T04:36:40;101565.08;;;10.78;87.51
34073;BME280;20346;52.702;16.886;2022-10-28T04:39:25;101565.52;;;10.77;87.52
34073;BME280;20346;52.702;16.886;2022-10-28T04:42:11;101565.52;;;10.77;87.55
34073;BME280;20346;52.702;16.886;2022-10-28T04:44:56;101564.66;;;10.77;87.52
34073;BME280;20346;52.702;16.886;2022-10-28T04:47:41;101557.76;;;10.74;87.53
34073;BME280;20346;52.702;16.886;2022-10-28T04:50:26;101550.43;;;10.74;87.54
34073;BME280;20346;52.702;16.886;2022-10-28T04:53:12;101536.20;;;10.72;87.57
34073;BME280;20346;52.702;16.886;2022-10-28T04:55:58;101543.97;;;10.72;87.56
34073;BME280;20346;52.702;16.886;2022-10-28T04:58:43;101546.98;;;10.72;87.58
34073;BME280;20346;52.702;16.886;2022-10-28T05:01:28;101538.80;;;10.71;87.62
34073;BME280;20346;52.702;16.886;2022-10-28T05:04:13;101538.36;;;10.71;87.63
34073;BME280;20346;52.702;16.886;2022-10-28T05:06:59;101537.93;;;10.72;87.60
34073;BME280;20346;52.702;16.886;2022-10-28T05:09:44;101540.95;;;10.71;87.59
34073;BME280;20346;52.702;16.886;2022-10-28T05:12:29;101536.64;;;10.72;87.61
34073;BME280;20346;52.702;16.886;2022-10-28T05:15:14;101537.93;;;10.72;87.60
34073;BME280;20346;52.702;16.886;2022-10-28T05:18:00;101531.89;;;10.71;87.63
34073;BME280;20346;52.702;16.886;2022-10-28T05:20:45;101531.47;;;10.70;87.63
34073;BME280;20346;52.702;16.886;2022-10-28T05:23:31;101538.37;;;10.70;87.65
34073;BME280;20346;52.702;16.886;2022-10-28T05:26:16;101540.52;;;10.69;87.72
34073;BME280;20346;52.702;16.886;2022-10-28T05:29:01;101545.70;;;10.67;87.66
34073;BME280;20346;52.702;16.886;2022-10-28T05:31:47;101552.59;;;10.67;87.70
34073;BME280;20346;52.702;16.886;2022-10-28T05:34:32;101546.56;;;10.66;87.71
34073;BME280;20346;52.702;16.886;2022-10-28T05:37:18;101543.97;;;10.66;87.70
34073;BME280;20346;52.702;16.886;2022-10-28T05:40:03;101541.82;;;10.66;87.71
34073;BME280;20346;52.702;16.886;2022-10-28T05:42:48;101536.65;;;10.64;87.71
34073;BME280;20346;52.702;16.886;2022-10-28T05:45:34;101535.36;;;10.64;87.71
34073;BME280;20346;52.702;16.886;2022-10-28T05:48:19;101524.15;;;10.64;87.70
34073;BME280;20346;52.702;16.886;2022-10-28T05:51:04;101520.27;;;10.64;87.73
34073;BME280;20346;52.702;16.886;2022-10-28T05:53:49;101528.89;;;10.64;87.75
34073;BME280;20346;52.702;16.886;2022-10-28T05:56:35;101525.01;;;10.64;87.75
34073;BME280;20346;52.702;16.886;2022-10-28T05:59:20;101533.20;;;10.65;87.74
34073;BME280;20346;52.702;16.886;2022-10-28T06:02:05;101541.39;;;10.65;87.77
34073;BME280;20346;52.702;16.886;2022-10-28T06:04:51;101540.95;;;10.67;87.76
34073;BME280;20346;52.702;16.886;2022-10-28T06:07:37;101533.62;;;10.68;87.83
34073;BME280;20346;52.702;16.886;2022-10-28T06:10:22;101530.18;;;10.67;87.77
34073;BME280;20346;52.702;16.886;2022-10-28T06:13:08;101529.31;;;10.68;87.79
34073;BME280;20346;52.702;16.886;2022-10-28T06:15:54;101528.02;;;10.70;87.80
34073;BME280;20346;52.702;16.886;2022-10-28T06:18:39;101524.13;;;10.71;87.81
34073;BME280;20346;52.702;16.886;2022-10-28T06:21:25;101527.58;;;10.73;87.81
34073;BME280;20346;52.702;16.886;2022-10-28T06:24:10;101527.58;;;10.73;87.83
34073;BME280;20346;52.702;16.886;2022-10-28T06:26:55;101534.91;;;10.75;87.83
34073;BME280;20346;52.702;16.886;2022-10-28T06:29:40;101540.08;;;10.75;87.81
34073;BME280;20346;52.702;16.886;2022-10-28T06:32:25;101535.34;;;10.78;87.85
34073;BME280;20346;52.702;16.886;2022-10-28T06:35:10;101534.91;;;10.78;87.84
34073;BME280;20346;52.702;16.886;2022-10-28T06:37:55;101532.74;;;10.79;87.84
34073;BME280;20346;52.702;16.886;2022-10-28T06:40:40;101541.36;;;10.81;87.86
34073;BME280;20346;52.702;16.886;2022-10-28T06:43:26;101548.69;;;10.85;87.89
34073;BME280;20346;52.702;16.886;2022-10-28T06:46:11;101541.78;;;10.87;87.89
34073;BME280;20346;52.702;16.886;2022-10-28T06:48:56;101559.42;;;10.92;87.95
34073;BME280;20346;52.702;16.886;2022-10-28T06:51:41;101552.51;;;10.97;87.97
34073;BME280;20346;52.702;16.886;2022-10-28T06:54:26;101553.34;;;11.07;88.06
34073;BME280;20346;52.702;16.886;2022-10-28T06:57:11;101549.42;;;11.20;88.11
34073;BME280;20346;52.702;16.886;2022-10-28T06:59:57;101551.97;;;11.31;88.08
34073;BME280;20346;52.702;16.886;2022-10-28T07:02:42;101550.22;;;11.38;88.06
34073;BME280;20346;52.702;16.886;2022-10-28T07:05:27;101553.17;;;11.45;88.09
34073;BME280;20346;52.702;16.886;2022-10-28T07:08:12;101554.00;;;11.54;88.09
34073;BME280;20346;52.702;16.886;2022-10-28T07:10:58;101556.13;;;11.61;88.11
34073;BME280;20346;52.702;16.886;2022-10-28T07:13:43;101556.50;;;11.71;88.15
34073;BME280;20346;52.702;16.886;2022-10-28T07:16:29;101563.80;;;11.85;88.23
34073;BME280;20346;52.702;16.886;2022-10-28T07:19:14;101565.48;;;11.92;88.17
34073;BME280;20346;52.702;16.886;2022-10-28T07:21:59;101566.27;;;11.99;88.17
34073;BME280;20346;52.702;16.886;2022-10-28T07:24:44;101569.26;;;12.05;88.17
34073;BME280;20346;52.702;16.886;2022-10-28T07:27:29;101561.45;;;12.09;88.22
34073;BME280;20346;52.702;16.886;2022-10-28T07:30:14;101558.38;;;12.16;88.29
34073;BME280;20346;52.702;16.886;2022-10-28T07:32:59;101547.49;;;12.27;88.35
34073;BME280;20346;52.702;16.886;2022-10-28T07:35:45;101544.84;;;12.33;88.33
34073;BME280;20346;52.702;16.886;2022-10-28T07:38:30;101552.08;;;12.47;88.47
34073;BME280;20346;52.702;16.886;2022-10-28T07:41:18;101551.91;;;12.63;88.48
34073;BME280;20346;52.702;16.886;2022-10-28T07:44:04;101554.44;;;12.70;88.36
34073;BME280;20346;52.702;16.886;2022-10-28T07:46:49;101553.53;;;12.74;88.31
34073;BME280;20346;52.702;16.886;2022-10-28T07:49:34;101558.64;;;12.82;88.41
34073;BME280;20346;52.702;16.886;2022-10-28T07:52:20;101550.30;;;12.95;88.51
34073;BME280;20346;52.702;16.886;2022-10-28T07:55:05;101554.02;;;13.07;88.49
34073;BME280;20346;52.702;16.886;2022-10-28T07:57:50;101565.63;;;13.14;88.44
34073;BME280;20346;52.702;16.886;2022-10-28T08:00:35;101558.23;;;13.20;88.45
34073;BME280;20346;52.702;16.886;2022-10-28T08:03:20;101565.52;;;13.27;88.50
34073;BME280;20346;52.702;16.886;2022-10-28T08:06:11;101558.53;;;13.32;88.54
34073;BME280;20346;52.702;16.886;2022-10-28T08:08:59;101546.37;;;13.35;88.57
34073;BME280;20346;52.702;16.886;2022-10-28T08:11:44;101546.31;;;13.40;88.57
34073;BME280;20346;52.702;16.886;2022-10-28T08:14:29;101554.48;;;13.44;88.61
34073;BME280;20346;52.702;16.886;2022-10-28T08:17:14;101549.67;;;13.48;88.63
34073;BME280;20346;52.702;16.886;2022-10-28T08:19:59;101548.26;;;13.54;88.67
34073;BME280;20346;52.702;16.886;2022-10-28T08:22:44;101548.22;;;13.57;88.69
34073;BME280;20346;52.702;16.886;2022-10-28T08:25:29;101546.42;;;13.62;88.70
34073;BME280;20346;52.702;16.886;2022-10-28T08:28:15;101552.39;;;13.69;88.73
34073;BME280;20346;52.702;16.886;2022-10-28T08:31:00;101552.35;;;13.72;88.70
34073;BME280;20346;52.702;16.886;2022-10-28T08:33:46;101546.67;;;13.75;88.71
34073;BME280;20346;52.702;16.886;2022-10-28T08:36:31;101545.75;;;13.79;88.68
34073;BME280;20346;52.702;16.886;2022-10-28T08:39:16;101549.16;;;13.83;88.75
34073;BME280;20346;52.702;16.886;2022-10-28T08:42:25;101539.53;;;13.89;88.73
34073;BME280;20346;52.702;16.886;2022-10-28T08:45:43;101537.73;;;13.95;88.73
34073;BME280;20346;52.702;16.886;2022-10-28T08:48:35;101533.31;;;14.00;88.72
34073;BME280;20346;52.702;16.886;2022-10-28T08:54:26;101533.07;;;14.13;88.80
34073;BME280;20346;52.702;16.886;2022-10-28T08:57:27;101541.14;;;14.23;88.85
34073;BME280;20346;52.702;16.886;2022-10-28T09:00:24;101537.09;;;14.33;88.82
34073;BME280;20346;52.702;16.886;2022-10-28T09:06:07;101533.62;;;14.57;88.78
34073;BME280;20346;52.702;16.886;2022-10-28T09:08:53;101535.13;;;14.71;88.84
34073;BME280;20346;52.702;16.886;2022-10-28T09:15:19;101538.08;;;14.99;88.67
34073;BME280;20346;52.702;16.886;2022-10-28T09:17:56;101541.33;;;15.08;88.73
34073;BME280;20346;52.702;16.886;2022-10-28T09:23:41;101533.59;;;15.26;88.63
34073;BME280;20346;52.702;16.886;2022-10-28T09:26:46;101526.80;;;15.40;88.67
34073;BME280;20346;52.702;16.886;2022-10-28T09:32:42;101532.20;;;15.71;88.60
34073;BME280;20346;52.702;16.886;2022-10-28T09:35:43;101534.22;;;15.77;88.46
34073;BME280;20346;52.702;16.886;2022-10-28T09:38:33;101529.31;;;15.83;88.46
34073;BME280;20346;52.702;16.886;2022-10-28T09:41:38;101520.56;;;15.85;88.44
34073;BME280;20346;52.702;16.886;2022-10-28T09:44:40;101523.95;;;15.89;88.39
34073;BME280;20346;52.702;16.886;2022-10-28T09:47:44;101511.33;;;15.90;88.38
34073;BME280;20346;52.702;16.886;2022-10-28T09:50:32;101522.58;;;15.92;88.36
34073;BME280;20346;52.702;16.886;2022-10-28T09:56:16;101518.56;;;15.97;88.24
34073;BME280;20346;52.702;16.886;2022-10-28T09:59:02;101514.16;;;15.99;88.24
34073;BME280;20346;52.702;16.886;2022-10-28T10:01:48;101504.96;;;16.02;88.26
34073;BME280;20346;52.702;16.886;2022-10-28T10:04:32;101505.67;;;16.08;88.29
34073;BME280;20346;52.702;16.886;2022-10-28T10:07:39;101495.45;;;16.15;88.23
34073;BME280;20346;52.702;16.886;2022-10-28T10:10:29;101491.92;;;16.18;88.08
34073;BME280;20346;52.702;16.886;2022-10-28T10:13:34;101493.55;;;16.22;88.09
34073;BME280;20346;52.702;16.886;2022-10-28T10:16:42;101498.63;;;16.28;88.07
34073;BME280;20346;52.702;16.886;2022-10-28T10:22:50;101495.98;;;16.46;88.15
34073;BME280;20346;52.702;16.886;2022-10-28T10:25:34;101503.70;;;16.67;88.11
34073;BME280;20346;52.702;16.886;2022-10-28T10:28:20;101522.88;;;16.82;87.94
34073;BME280;20346;52.702;16.886;2022-10-28T10:31:07;101532.59;;;16.93;87.83
34073;BME280;20346;52.702;16.886;2022-10-28T10:33:56;101539.36;;;17.00;87.67
34073;BME280;20346;52.702;16.886;2022-10-28T10:36:47;101536.09;;;17.08;87.65
34073;BME280;20346;52.702;16.886;2022-10-28T10:39:36;101546.30;;;17.16;87.30
34073;BME280;20346;52.702;16.886;2022-10-28T10:42:21;101555.14;;;17.27;87.58
34073;BME280;20346;52.702;16.886;2022-10-28T10:48:14;101554.42;;;17.36;87.49
34073;BME280;20346;52.702;16.886;2022-10-28T10:51:07;101559.11;;;17.40;87.34
34073;BME280;20346;52.702;16.886;2022-10-28T10:53:56;101559.06;;;17.41;87.33
34073;BME280;20346;52.702;16.886;2022-10-28T10:56:44;101566.46;;;17.42;87.31
34073;BME280;20346;52.702;16.886;2022-10-28T10:59:30;101574.71;;;17.43;87.29
34073;BME280;20346;52.702;16.886;2022-10-28T11:05:21;101576.88;;;17.43;87.14
34073;BME280;20346;52.702;16.886;2022-10-28T11:08:10;101571.78;;;17.39;87.10
34073;BME280;20346;52.702;16.886;2022-10-28T11:11:09;101572.27;;;17.37;87.06
34073;BME280;20346;52.702;16.886;2022-10-28T11:17:01;101570.43;;;17.40;87.04
34073;BME280;20346;52.702;16.886;2022-10-28T11:19:46;101570.25;;;17.46;86.98
34073;BME280;20346;52.702;16.886;2022-10-28T11:22:45;101561.91;;;17.48;86.62
34073;BME280;20346;52.702;16.886;2022-10-28T11:25:49;101549.15;;;17.52;86.87
34073;BME280;20346;52.702;16.886;2022-10-28T11:28:47;101540.36;;;17.55;86.86
34073;BME280;20346;52.702;16.886;2022-10-28T11:35:07;101514.05;;;17.74;86.75
34073;BME280;20346;52.702;16.886;2022-10-28T11:41:19;101497.06;;;17.88;86.50
34073;BME280;20346;52.702;16.886;2022-10-28T11:57:27;101457.55;;;17.82;86.15
34073;BME280;20346;52.702;16.886;2022-10-28T12:13:16;101443.80;;;17.62;86.08
34073;BME280;20346;52.702;16.886;2022-10-28T12:19:49;101444.55;;;17.67;85.90
34073;BME280;20346;52.702;16.886;2022-10-28T12:22:50;101432.59;;;17.72;85.88
34073;BME280;20346;52.702;16.886;2022-10-28T12:25:41;101434.66;;;17.75;85.82
34073;BME280;20346;52.702;16.886;2022-10-28T12:28:50;101434.26;;;17.74;85.68
34073;BME280;20346;52.702;16.886;2022-10-28T12:31:41;101436.47;;;17.73;85.62
34073;BME280;20346;52.702;16.886;2022-10-28T12:34:44;101440.89;;;17.71;85.57
34073;BME280;20346;52.702;16.886;2022-10-28T12:37:35;101422.69;;;17.68;85.47
34073;BME280;20346;52.702;16.886;2022-10-28T12:40:30;101411.37;;;17.68;85.41
34073;BME280;20346;52.702;16.886;2022-10-28T12:43:37;101399.27;;;17.65;85.37
34073;BME280;20346;52.702;16.886;2022-10-28T12:50:09;101392.35;;;17.63;85.32
34073;BME280;20346;52.702;16.886;2022-10-28T12:55:55;101385.30;;;17.66;85.27
34073;BME280;20346;52.702;16.886;2022-10-28T12:58:50;101376.30;;;17.73;85.25
34073;BME280;20346;52.702;16.886;2022-10-28T13:01:38;101372.58;;;17.80;85.23
34073;BME280;20346;52.702;16.886;2022-10-28T13:04:23;101384.25;;;17.83;85.07
34073;BME280;20346;52.702;16.886;2022-10-28T13:07:32;101386.26;;;17.89;84.99
34073;BME280;20346;52.702;16.886;2022-10-28T13:10:47;101379.56;;;17.93;85.01
34073;BME280;20346;52.702;16.886;2022-10-28T13:19:37;101383.73;;;17.99;84.69
34073;BME280;20346;52.702;16.886;2022-10-28T13:25:55;101384.28;;;17.95;84.57
34073;BME280;20346;52.702;16.886;2022-10-28T13:28:50;101388.72;;;17.93;84.44
34073;BME280;20346;52.702;16.886;2022-10-28T13:31:43;101383.69;;;17.87;84.38
34073;BME280;20346;52.702;16.886;2022-10-28T13:34:34;101385.16;;;17.82;84.30
34073;BME280;20346;52.702;16.886;2022-10-28T13:37:22;101393.56;;;17.79;84.31
34073;BME280;20346;52.702;16.886;2022-10-28T13:43:18;101391.20;;;17.71;84.22
34073;BME280;20346;52.702;16.886;2022-10-28T13:46:04;101397.84;;;17.68;84.15
34073;BME280;20346;52.702;16.886;2022-10-28T13:48:49;101398.83;;;17.66;84.12
34073;BME280;20346;52.702;16.886;2022-10-28T13:51:43;101390.59;;;17.63;84.07
34073;BME280;20346;52.702;16.886;2022-10-28T13:57:36;101382.75;;;17.63;84.01
34073;BME280;20346;52.702;16.886;2022-10-28T14:03:20;101364.03;;;17.62;83.89
34073;BME280;20346;52.702;16.886;2022-10-28T14:06:07;101369.27;;;17.62;83.86
34073;BME280;20346;52.702;16.886;2022-10-28T14:08:52;101379.67;;;17.64;83.80
34073;BME280;20346;52.702;16.886;2022-10-28T14:11:37;101383.15;;;17.64;83.81
34073;BME280;20346;52.702;16.886;2022-10-28T14:14:22;101384.00;;;17.65;83.75
34073;BME280;20346;52.702;16.886;2022-10-28T14:17:16;101378.75;;;17.66;83.77
34073;BME280;20346;52.702;16.886;2022-10-28T14:20:06;101375.15;;;17.69;83.69
34073;BME280;20346;52.702;16.886;2022-10-28T14:26:14;101371.17;;;17.70;83.57
34073;BME280;20346;52.702;16.886;2022-10-28T14:28:59;101355.98;;;17.68;83.52
34073;BME280;20346;52.702;16.886;2022-10-28T14:31:44;101346.08;;;17.65;83.47
34073;BME280;20346;52.702;16.886;2022-10-28T14:34:33;101361.92;;;17.60;83.42
34073;BME280;20346;52.702;16.886;2022-10-28T14:37:24;101362.92;;;17.56;83.40
34073;BME280;20346;52.702;16.886;2022-10-28T14:40:50;101368.31;;;17.51;83.34
34073;BME280;20346;52.702;16.886;2022-10-28T14:43:42;101378.91;;;17.47;83.32
34073;BME280;20346;52.702;16.886;2022-10-28T14:49:30;101380.47;;;17.39;83.26
34073;BME280;20346;52.702;16.886;2022-10-28T14:52:18;101364.42;;;17.37;83.21
34073;BME280;20346;52.702;16.886;2022-10-28T14:55:05;101340.14;;;17.33;83.24
34073;BME280;20346;52.702;16.886;2022-10-28T14:57:52;101335.86;;;17.31;83.17
34073;BME280;20346;52.702;16.886;2022-10-28T15:00:40;101329.83;;;17.29;83.24
34073;BME280;20346;52.702;16.886;2022-10-28T15:03:27;101334.66;;;17.28;83.17
34073;BME280;20346;52.702;16.886;2022-10-28T15:06:42;101333.95;;;17.23;83.09
34073;BME280;20346;52.702;16.886;2022-10-28T15:09:31;101334.55;;;17.17;83.08
34073;BME280;20346;52.702;16.886;2022-10-28T15:12:17;101333.47;;;17.11;83.04
34073;BME280;20346;52.702;16.886;2022-10-28T15:15:02;101329.78;;;17.04;83.00
34073;BME280;20346;52.702;16.886;2022-10-28T15:17:50;101327.81;;;16.97;82.99
34073;BME280;20346;52.702;16.886;2022-10-28T15:20:36;101321.52;;;16.90;82.99
34073;BME280;20346;52.702;16.886;2022-10-28T15:23:22;101314.36;;;16.81;82.96
34073;BME280;20346;52.702;16.886;2022-10-28T15:26:10;101323.69;;;16.75;82.95
34073;BME280;20346;52.702;16.886;2022-10-28T15:28:57;101324.73;;;16.70;82.89
34073;BME280;20346;52.702;16.886;2022-10-28T15:47:33;101320.84;;;16.39;82.87
34073;BME280;20346;52.702;16.886;2022-10-28T15:50:31;101321.87;;;16.33;82.89
34073;BME280;20346;52.702;16.886;2022-10-28T15:53:40;101318.95;;;16.29;82.86
34073;BME280;20346;52.702;16.886;2022-10-28T15:56:28;101313.86;;;16.25;82.85
34073;BME280;20346;52.702;16.886;2022-10-28T15:59:19;101311.83;;;16.19;82.82
34073;BME280;20346;52.702;16.886;2022-10-28T16:08:30;101310.97;;;16.04;82.83
34073;BME280;20346;52.702;16.886;2022-10-28T16:11:17;101308.53;;;15.98;82.81
34073;BME280;20346;52.702;16.886;2022-10-28T16:14:06;101311.27;;;15.94;82.81
34073;BME280;20346;52.702;16.886;2022-10-28T16:17:23;101306.62;;;15.88;82.79
34073;BME280;20346;52.702;16.886;2022-10-28T16:20:12;101309.34;;;15.84;82.78
34073;BME280;20346;52.702;16.886;2022-10-28T16:23:00;101305.59;;;15.78;82.79
34073;BME280;20346;52.702;16.886;2022-10-28T16:25:45;101308.73;;;15.74;82.79
34073;BME280;20346;52.702;16.886;2022-10-28T16:28:31;101299.31;;;15.69;82.77
34073;BME280;20346;52.702;16.886;2022-10-28T16:31:17;101301.19;;;15.64;82.80
34073;BME280;20346;52.702;16.886;2022-10-28T16:34:04;101293.52;;;15.59;82.82
34073;BME280;20346;52.702;16.886;2022-10-28T16:36:49;101292.70;;;15.55;82.84
34073;BME280;20346;52.702;16.886;2022-10-28T16:39:34;101291.48;;;15.52;82.84
34073;BME280;20346;52.702;16.886;2022-10-28T16:42:20;101289.40;;;15.49;82.82
34073;BME280;20346;52.702;16.886;2022-10-28T16:45:08;101291.67;;;15.45;82.81
34073;BME280;20346;52.702;16.886;2022-10-28T16:47:55;101289.59;;;15.41;82.84
34073;BME280;20346;52.702;16.886;2022-10-28T16:50:42;101289.22;;;15.39;82.84
34073;BME280;20346;52.702;16.886;2022-10-28T16:53:29;101294.09;;;15.35;82.83
34073;BME280;20346;52.702;16.886;2022-10-28T16:56:14;101303.70;;;15.33;82.85
34073;BME280;20346;52.702;16.886;2022-10-28T16:58:59;101318.03;;;15.33;82.92
34073;BME280;20346;52.702;16.886;2022-10-28T17:01:45;101322.84;;;15.32;82.89
34073;BME280;20346;52.702;16.886;2022-10-28T17:04:30;101315.95;;;15.29;82.86
34073;BME280;20346;52.702;16.886;2022-10-28T17:07:15;101314.72;;;15.26;82.87